createdAt,value
2023-04-06T00:02:35.141Z,102756.34
2023-04-06T00:05:40.434Z,102761.00
2023-04-06T00:08:45.837Z,102766.69
2023-04-06T00:11:52.423Z,102766.16
2023-04-06T00:14:57.806Z,102762.72
2023-04-06T00:18:03.054Z,102765.34
2023-04-06T00:21:08.345Z,102764.19
2023-04-06T00:24:14.683Z,102771.09
2023-04-06T00:27:21.098Z,102764.63
2023-04-06T00:30:26.425Z,102769.59
2023-04-06T00:33:31.632Z,102763.03
2023-04-06T00:36:36.734Z,102764.75
2023-04-06T00:39:42.089Z,102768.78
2023-04-06T00:42:48.616Z,102770.38
2023-04-06T00:45:54.327Z,102762.91
2023-04-06T00:49:00.191Z,102772.81
2023-04-06T00:52:05.515Z,102761.41
2023-04-06T00:55:11.739Z,102764.19
2023-04-06T00:58:21.888Z,102769.44
2023-04-06T01:01:33.524Z,102774.25
2023-04-06T01:04:44.444Z,102771.88
2023-04-06T01:07:58.330Z,102771.75
2023-04-06T01:11:06.937Z,102772.69
2023-04-06T01:14:16.436Z,102772.38
2023-04-06T01:17:34.095Z,102774.13
2023-04-06T01:20:46.831Z,102776.84
2023-04-06T01:23:55.151Z,102768.66
2023-04-06T01:27:07.440Z,102772.16
2023-04-06T01:30:27.515Z,102772.34
2023-04-06T01:33:37.456Z,102781.19
2023-04-06T01:36:45.728Z,102767.28
2023-04-06T01:40:07.611Z,102775.09
2023-04-06T01:43:22.393Z,102764.47
2023-04-06T01:46:41.211Z,102773.50
2023-04-06T01:49:48.142Z,102777.78
2023-04-06T01:52:53.589Z,102774.59
2023-04-06T01:56:00.339Z,102780.63
2023-04-06T01:59:11.045Z,102773.03
2023-04-06T02:02:20.643Z,102780.97
2023-04-06T02:05:38.956Z,102777.69
2023-04-06T02:08:55.733Z,102784.53
2023-04-06T02:12:03.498Z,102776.25
2023-04-06T02:15:14.329Z,102776.97
2023-04-06T02:18:20.467Z,102786.31
2023-04-06T02:21:25.625Z,102778.69
2023-04-06T02:24:30.782Z,102782.94
2023-04-06T02:27:37.675Z,102785.72
2023-04-06T02:30:43.378Z,102784.22
2023-04-06T02:33:49.036Z,102784.13
2023-04-06T02:36:55.593Z,102778.47
2023-04-06T02:40:00.942Z,102784.63
2023-04-06T02:43:10.073Z,102771.97
2023-04-06T02:46:15.463Z,102789.78
2023-04-06T02:49:20.709Z,102786.28
2023-04-06T02:52:26.796Z,102790.78
2023-04-06T02:55:32.337Z,102780.59
2023-04-06T02:58:39.196Z,102779.09
2023-04-06T03:01:45.027Z,102793.53
2023-04-06T03:04:50.751Z,102790.09
2023-04-06T03:08:02.457Z,102783.59
2023-04-06T03:11:20.692Z,102789.16
2023-04-06T03:14:30.837Z,102784.25
2023-04-06T03:17:36.040Z,102794.31
2023-04-06T03:20:45.204Z,102789.41
2023-04-06T03:23:53.529Z,102788.69
2023-04-06T03:26:58.715Z,102782.06
2023-04-06T03:30:06.034Z,102786.25
2023-04-06T03:33:13.771Z,102796.53
2023-04-06T03:36:28.512Z,102799.88
2023-04-06T03:39:35.905Z,102793.78
2023-04-06T03:42:41.913Z,102794.66
2023-04-06T03:45:53.112Z,102799.88
2023-04-06T03:48:59.190Z,102805.72
2023-04-06T03:52:04.678Z,102801.53
2023-04-06T03:55:11.429Z,102804.22
2023-04-06T03:58:16.752Z,102805.94
2023-04-06T04:01:23.518Z,102810.91
2023-04-06T04:04:28.899Z,102805.13
2023-04-06T04:07:34.012Z,102813.63
2023-04-06T04:10:39.275Z,102811.22
2023-04-06T04:13:44.342Z,102816.13
2023-04-06T04:16:51.637Z,102810.09
2023-04-06T04:19:56.937Z,102816.06
2023-04-06T04:23:02.260Z,102816.34
2023-04-06T04:26:12.779Z,102824.09
2023-04-06T04:29:22.205Z,102825.91
2023-04-06T04:32:30.055Z,102832.13
2023-04-06T04:35:37.414Z,102832.13
2023-04-06T04:38:43.280Z,102837.94
2023-04-06T04:41:49.562Z,102825.66
2023-04-06T04:44:55.754Z,102827.38
2023-04-06T04:48:17.632Z,102834.56
2023-04-06T04:51:31.697Z,102840.47
2023-04-06T04:54:51.892Z,102833.13
2023-04-06T04:58:03.859Z,102834.91
2023-04-06T05:01:23.872Z,102844.94
2023-04-06T05:04:31.113Z,102851.00
2023-04-06T05:07:39.885Z,102845.38
2023-04-06T05:10:49.217Z,102844.53
2023-04-06T05:13:55.053Z,102850.22
2023-04-06T05:17:03.028Z,102840.59
2023-04-06T05:20:10.961Z,102859.78
2023-04-06T05:23:23.885Z,102845.25
2023-04-06T05:26:30.511Z,102854.31
2023-04-06T05:29:42.148Z,102847.81
2023-04-06T05:32:48.532Z,102849.38
2023-04-06T05:35:56.619Z,102850.97
2023-04-06T05:39:02.285Z,102850.97
2023-04-06T05:42:13.548Z,102859.59
2023-04-06T05:45:36.017Z,102862.72
2023-04-06T05:48:43.281Z,102865.69
2023-04-06T05:51:52.600Z,102861.00
2023-04-06T05:54:59.181Z,102866.38
2023-04-06T05:58:04.944Z,102863.03
2023-04-06T06:01:12.701Z,102862.84
2023-04-06T06:04:21.645Z,102877.84
2023-04-06T06:07:31.799Z,102869.94
2023-04-06T06:10:42.077Z,102883.03
2023-04-06T06:13:50.201Z,102863.94
2023-04-06T06:16:55.619Z,102876.66
2023-04-06T06:20:01.264Z,102875.97
2023-04-06T06:23:09.185Z,102879.41
2023-04-06T06:26:14.805Z,102885.75
2023-04-06T06:29:20.144Z,102889.00
2023-04-06T06:32:25.406Z,102871.75
2023-04-06T06:35:32.126Z,102888.66
2023-04-06T06:38:42.762Z,102894.38
2023-04-06T06:41:48.132Z,102896.53
2023-04-06T06:44:54.643Z,102890.56
2023-04-06T06:48:00.010Z,102894.97
2023-04-06T06:51:05.426Z,102886.72
2023-04-06T06:54:14.736Z,102894.72
2023-04-06T06:57:19.907Z,102889.50
2023-04-06T07:00:26.596Z,102892.84
2023-04-06T07:03:32.863Z,102894.50
2023-04-06T07:06:38.764Z,102896.00
2023-04-06T07:09:47.210Z,102896.94
2023-04-06T07:12:52.419Z,102891.56
2023-04-06T07:15:57.573Z,102894.59
2023-04-06T07:19:02.922Z,102897.19
2023-04-06T07:22:08.168Z,102894.38
2023-04-06T07:25:15.699Z,102905.53
2023-04-06T07:28:21.045Z,102900.63
2023-04-06T07:31:26.374Z,102905.81
2023-04-06T07:34:31.838Z,102908.66
2023-04-06T07:37:37.239Z,102910.09
2023-04-06T07:40:43.772Z,102908.13
2023-04-06T07:43:49.088Z,102910.09
2023-04-06T07:46:54.226Z,102916.72
2023-04-06T07:50:01.220Z,102920.56
2023-04-06T07:53:08.468Z,102918.88
2023-04-06T07:56:16.518Z,102921.88
2023-04-06T07:59:21.871Z,102912.19
2023-04-06T08:02:27.119Z,102929.91
2023-04-06T08:05:32.311Z,102918.06
2023-04-06T08:08:37.464Z,102928.03
2023-04-06T08:11:45.566Z,102926.06
2023-04-06T08:14:51.410Z,102923.81
2023-04-06T08:17:58.341Z,102930.13
2023-04-06T08:21:03.678Z,102935.81
2023-04-06T08:24:09.410Z,102935.44
2023-04-06T08:27:16.192Z,102931.69
2023-04-06T08:30:22.139Z,102931.63
2023-04-06T08:33:27.904Z,102941.81
2023-04-06T08:36:33.300Z,102940.47
2023-04-06T08:39:38.273Z,102935.00
2023-04-06T08:42:51.945Z,102941.41
2023-04-06T08:45:57.508Z,102935.97
2023-04-06T08:49:03.640Z,102923.34
2023-04-06T08:52:10.326Z,102923.59
2023-04-06T08:55:15.680Z,102931.53
2023-04-06T08:58:31.570Z,102921.97
2023-04-06T09:01:43.558Z,102926.19
2023-04-06T09:04:50.333Z,102926.22
2023-04-06T09:07:55.521Z,102917.50
2023-04-06T09:11:00.728Z,102927.97
2023-04-06T09:14:08.064Z,102924.91
2023-04-06T09:17:23.506Z,102921.72
2023-04-06T09:20:29.466Z,102923.44
2023-04-06T09:23:34.861Z,102929.59
2023-04-06T09:26:49.568Z,102922.84
2023-04-06T09:30:06.520Z,102924.41
2023-04-06T09:33:16.169Z,102922.22
2023-04-06T09:36:21.841Z,102923.03
2023-04-06T09:39:27.477Z,102922.94
2023-04-06T09:42:32.683Z,102930.50
2023-04-06T09:45:39.339Z,102915.53
2023-04-06T09:48:44.674Z,102920.38
2023-04-06T09:51:56.777Z,102914.16
2023-04-06T09:55:04.150Z,102917.63
2023-04-06T09:58:12.028Z,102911.50
2023-04-06T10:01:19.965Z,102922.25
2023-04-06T10:04:32.143Z,102915.81
2023-04-06T10:07:46.184Z,102899.97
2023-04-06T10:11:02.910Z,102920.28
2023-04-06T10:14:08.639Z,102928.38
2023-04-06T10:17:17.842Z,102913.94
2023-04-06T10:20:28.284Z,102910.41
2023-04-06T10:23:36.291Z,102915.66
2023-04-06T10:26:41.740Z,102920.03
2023-04-06T10:29:49.790Z,102916.66
2023-04-06T10:32:56.728Z,102905.25
2023-04-06T10:36:12.770Z,102900.25
2023-04-06T10:39:28.425Z,102906.03
2023-04-06T10:42:40.192Z,102899.66
2023-04-06T10:45:45.514Z,102897.31
2023-04-06T10:48:52.089Z,102902.66
2023-04-06T10:51:58.668Z,102895.22
2023-04-06T10:55:06.234Z,102906.22
2023-04-06T10:58:12.453Z,102894.66
2023-04-06T11:01:18.911Z,102887.22
2023-04-06T11:04:25.595Z,102890.72
2023-04-06T11:07:31.409Z,102890.00
2023-04-06T11:10:36.614Z,102880.69
2023-04-06T11:13:43.088Z,102888.69
2023-04-06T11:16:51.167Z,102892.56
2023-04-06T11:19:58.109Z,102877.03
2023-04-06T11:23:04.748Z,102877.78
2023-04-06T11:26:13.919Z,102883.38
2023-04-06T11:29:20.591Z,102870.19
2023-04-06T11:32:26.359Z,102865.09
2023-04-06T11:35:35.112Z,102877.09
2023-04-06T11:38:42.325Z,102872.50
2023-04-06T11:41:50.973Z,102875.63
2023-04-06T11:44:58.241Z,102878.06
2023-04-06T11:48:03.570Z,102880.66
2023-04-06T11:51:10.166Z,102873.22
2023-04-06T11:54:15.525Z,102880.78
2023-04-06T11:57:21.762Z,102877.97
2023-04-06T12:00:27.220Z,102878.13
2023-04-06T12:03:32.693Z,102871.53
2023-04-06T12:06:39.599Z,102873.09
2023-04-06T12:09:45.184Z,102872.91
2023-04-06T12:12:50.132Z,102867.31
2023-04-06T12:15:55.290Z,102874.09
2023-04-06T12:19:01.160Z,102869.06
2023-04-06T12:22:08.206Z,102864.38
2023-04-06T12:25:13.389Z,102863.84
2023-04-06T12:28:19.156Z,102862.22
2023-04-06T12:31:26.601Z,102867.91
2023-04-06T12:34:31.886Z,102864.19
2023-04-06T12:37:38.856Z,102863.66
2023-04-06T12:40:43.905Z,102857.91
2023-04-06T12:43:50.832Z,102845.28
2023-04-06T12:46:56.630Z,102849.06
2023-04-06T12:50:01.995Z,102850.00
2023-04-06T12:53:08.673Z,102848.38
2023-04-06T12:56:15.122Z,102839.34
2023-04-06T12:59:22.015Z,102836.59
2023-04-06T13:02:28.293Z,102849.03
2023-04-06T13:05:33.807Z,102838.34
2023-04-06T13:08:41.072Z,102842.78
2023-04-06T13:11:47.920Z,102837.50
2023-04-06T13:14:53.643Z,102839.00
2023-04-06T13:17:58.735Z,102837.31
2023-04-06T13:21:03.924Z,102837.50
2023-04-06T13:24:11.947Z,102848.66
2023-04-06T13:27:17.070Z,102843.38
2023-04-06T13:30:22.308Z,102834.97
2023-04-06T13:33:27.532Z,102836.81
2023-04-06T13:36:33.058Z,102833.50
2023-04-06T13:39:39.653Z,102820.66
2023-04-06T13:42:46.018Z,102822.78
2023-04-06T13:45:55.931Z,102826.94
2023-04-06T13:49:01.121Z,102816.75
2023-04-06T13:52:06.622Z,102813.56
2023-04-06T13:55:14.177Z,102808.81
2023-04-06T13:58:19.440Z,102803.03
2023-04-06T14:01:24.493Z,102820.44
2023-04-06T14:04:29.687Z,102821.72
2023-04-06T14:07:35.080Z,102810.13
2023-04-06T14:10:43.246Z,102806.56
2023-04-06T14:13:48.554Z,102803.44
2023-04-06T14:16:53.894Z,102802.53
2023-04-06T14:19:59.346Z,102805.44
2023-04-06T14:23:04.649Z,102802.22
2023-04-06T14:26:11.718Z,102794.41
2023-04-06T14:29:16.834Z,102798.38
2023-04-06T14:32:23.027Z,102795.66
2023-04-06T14:35:29.380Z,102795.09
2023-04-06T14:38:35.906Z,102792.44
2023-04-06T14:41:42.536Z,102787.78
2023-04-06T14:44:47.642Z,102782.50
2023-04-06T14:47:52.789Z,102790.19
2023-04-06T14:50:58.516Z,102785.31
2023-04-06T14:54:04.637Z,102775.88
2023-04-06T14:57:11.102Z,102778.53
2023-04-06T15:00:17.433Z,102784.00
2023-04-06T15:03:22.806Z,102782.53
2023-04-06T15:06:29.368Z,102790.53
2023-04-06T15:09:34.435Z,102789.97
2023-04-06T15:12:41.312Z,102789.59
2023-04-06T15:15:46.980Z,102799.13
2023-04-06T15:18:52.206Z,102807.13
2023-04-06T15:21:58.978Z,102794.13
2023-04-06T15:25:05.456Z,102793.69
2023-04-06T15:28:15.069Z,102803.78
2023-04-06T15:31:35.919Z,102789.97
2023-04-06T15:34:43.055Z,102802.16
2023-04-06T15:37:48.170Z,102797.00
2023-04-06T15:40:53.229Z,102798.22
2023-04-06T15:43:59.783Z,102801.31
2023-04-06T15:47:04.982Z,102794.81
2023-04-06T15:50:11.121Z,102796.41
2023-04-06T15:53:16.182Z,102798.41
2023-04-06T15:56:21.544Z,102804.50
2023-04-06T15:59:27.928Z,102798.31
2023-04-06T16:02:33.139Z,102793.81
2023-04-06T16:08:45.386Z,102795.97
2023-04-06T16:11:51.342Z,102791.59
2023-04-06T16:14:57.827Z,102795.72
2023-04-06T16:18:04.220Z,102795.34
2023-04-06T16:21:09.826Z,102793.91
2023-04-06T16:24:15.237Z,102791.00
2023-04-06T16:27:20.611Z,102795.09
2023-04-06T16:30:30.436Z,102792.53
2023-04-06T16:33:35.819Z,102797.78
2023-04-06T16:36:41.095Z,102795.81
2023-04-06T16:39:45.898Z,102796.19
2023-04-06T16:42:50.825Z,102789.25
2023-04-06T16:45:56.998Z,102798.81
2023-04-06T16:49:01.958Z,102805.16
2023-04-06T16:52:06.764Z,102797.19
2023-04-06T16:55:13.267Z,102800.41
2023-04-06T16:58:18.145Z,102801.72
2023-04-06T17:01:25.255Z,102815.06
2023-04-06T17:04:30.916Z,102813.31
2023-04-06T17:07:36.311Z,102808.47
2023-04-06T17:10:47.006Z,102818.59
2023-04-06T17:14:03.807Z,102819.38
2023-04-06T17:17:10.176Z,102819.91
2023-04-06T17:20:15.435Z,102822.97
2023-04-06T17:23:21.221Z,102822.84
2023-04-06T17:26:26.237Z,102824.38
2023-04-06T17:29:31.017Z,102829.75
2023-04-06T17:32:37.374Z,102834.63
2023-04-06T17:35:42.558Z,102830.00
2023-04-06T17:38:47.341Z,102827.34
2023-04-06T17:41:52.105Z,102832.81
2023-04-06T17:44:59.358Z,102834.25
2023-04-06T17:48:06.063Z,102834.06
2023-04-06T17:51:11.386Z,102825.66
2023-04-06T17:54:16.680Z,102830.00
2023-04-06T17:57:23.038Z,102830.13
2023-04-06T18:00:28.557Z,102835.63
2023-04-06T18:03:35.411Z,102824.03
2023-04-06T18:06:40.663Z,102830.56
2023-04-06T18:09:46.089Z,102833.09
2023-04-06T18:12:52.611Z,102840.38
2023-04-06T18:15:57.726Z,102834.53
2023-04-06T18:19:04.917Z,102837.47
2023-04-06T18:22:11.099Z,102839.56
2023-04-06T18:25:16.501Z,102837.56
2023-04-06T18:28:21.560Z,102844.50
2023-04-06T18:31:26.835Z,102845.38
2023-04-06T18:34:33.573Z,102841.06
2023-04-06T18:37:38.925Z,102851.81
2023-04-06T18:40:44.068Z,102848.38
2023-04-06T18:43:49.236Z,102845.75
2023-04-06T18:46:55.427Z,102859.34
2023-04-06T18:50:02.345Z,102847.50
2023-04-06T18:53:07.585Z,102858.28
2023-04-06T18:56:19.497Z,102849.25
2023-04-06T18:59:26.723Z,102861.56
2023-04-06T19:02:32.078Z,102861.63
2023-04-06T19:05:38.961Z,102855.78
2023-04-06T19:08:44.176Z,102852.44
2023-04-06T19:11:49.248Z,102852.16
2023-04-06T19:14:54.398Z,102865.63
2023-04-06T19:17:59.649Z,102862.31
2023-04-06T19:21:06.553Z,102868.91
2023-04-06T19:24:14.149Z,102861.50
2023-04-06T19:27:19.314Z,102864.88
2023-04-06T19:30:24.960Z,102854.72
2023-04-06T19:33:30.227Z,102868.22
2023-04-06T19:36:37.123Z,102858.91
2023-04-06T19:39:44.141Z,102863.16
2023-04-06T19:42:49.401Z,102877.44
2023-04-06T19:45:55.126Z,102875.63
2023-04-06T19:49:01.400Z,102884.00
2023-04-06T19:52:10.007Z,102871.03
2023-04-06T19:55:15.085Z,102867.66
2023-04-06T19:58:21.639Z,102872.56
2023-04-06T20:01:27.171Z,102868.44
2023-04-06T20:04:32.415Z,102868.41
2023-04-06T20:07:41.225Z,102871.03
2023-04-06T20:10:46.959Z,102875.28
2023-04-06T20:13:52.311Z,102870.47
2023-04-06T20:16:57.429Z,102877.06
2023-04-06T20:20:02.759Z,102869.44
2023-04-06T20:23:09.426Z,102869.56
2023-04-06T20:26:14.395Z,102868.41
2023-04-06T20:29:19.467Z,102871.84
2023-04-06T20:32:24.618Z,102873.91
2023-04-06T20:35:31.170Z,102875.41
2023-04-06T20:38:37.593Z,102867.78
2023-04-06T20:41:43.664Z,102873.94
2023-04-06T20:44:48.738Z,102868.91
2023-04-06T20:47:54.493Z,102861.88
2023-04-06T20:50:59.838Z,102865.19
2023-04-06T20:54:06.851Z,102861.88
2023-04-06T20:57:13.136Z,102869.31
2023-04-06T21:00:18.923Z,102864.28
2023-04-06T21:03:24.295Z,102871.50
2023-04-06T21:06:29.751Z,102869.72
2023-04-06T21:09:38.408Z,102871.72
2023-04-06T21:12:43.660Z,102866.47
2023-04-06T21:15:48.889Z,102873.22
2023-04-06T21:18:53.939Z,102874.03
2023-04-06T21:21:59.124Z,102874.59
2023-04-06T21:25:06.061Z,102872.13
2023-04-06T21:28:13.671Z,102878.84
2023-04-06T21:31:20.136Z,102871.28
2023-04-06T21:34:25.189Z,102872.81
2023-04-06T21:37:30.998Z,102868.47
2023-04-06T21:40:37.917Z,102871.81
2023-04-06T21:43:42.964Z,102860.84
2023-04-06T21:46:47.827Z,102870.06
2023-04-06T21:49:52.943Z,102875.00
2023-04-06T21:52:58.011Z,102872.69
2023-04-06T21:56:04.578Z,102863.44
2023-04-06T21:59:09.617Z,102868.50
2023-04-06T22:02:15.029Z,102872.41
2023-04-06T22:05:20.641Z,102868.97
2023-04-06T22:08:33.352Z,102860.38
2023-04-06T22:11:41.032Z,102863.00
2023-04-06T22:14:46.357Z,102868.22
2023-04-06T22:17:51.815Z,102864.00
2023-04-06T22:20:56.928Z,102855.75
2023-04-06T22:24:01.994Z,102869.16
2023-04-06T22:27:09.260Z,102867.44
2023-04-06T22:30:14.503Z,102858.75
2023-04-06T22:33:19.555Z,102867.31
2023-04-06T22:36:24.762Z,102863.69
2023-04-06T22:39:30.660Z,102875.72
2023-04-06T22:42:37.044Z,102865.91
2023-04-06T22:45:42.020Z,102870.81
2023-04-06T22:48:47.197Z,102868.97
2023-04-06T22:51:52.354Z,102867.66
2023-04-06T22:54:57.381Z,102857.78
2023-04-06T22:58:04.095Z,102862.56
2023-04-06T23:01:09.201Z,102856.56
2023-04-06T23:04:14.451Z,102855.63
2023-04-06T23:07:19.576Z,102853.38
2023-04-06T23:10:25.023Z,102856.06
2023-04-06T23:13:31.445Z,102862.66
2023-04-06T23:16:36.597Z,102865.13
2023-04-06T23:19:41.716Z,102860.84
2023-04-06T23:22:46.932Z,102865.91
2023-04-06T23:25:52.223Z,102864.28
2023-04-06T23:28:58.738Z,102865.78
2023-04-06T23:32:03.822Z,102865.13
2023-04-06T23:35:10.202Z,102865.53
2023-04-06T23:38:16.265Z,102852.69
2023-04-06T23:41:22.524Z,102850.97
2023-04-06T23:44:31.468Z,102855.34
2023-04-06T23:47:36.551Z,102860.25
2023-04-06T23:50:42.086Z,102859.34
2023-04-06T23:53:47.316Z,102859.34
2023-04-06T23:56:52.584Z,102856.06
